sensor_id;sensor_type;location;lat;lon;timestamp;pressure;altitude;pressure_sealevel;temperature
77414;BMP280;66486;49.992;19.164;2023-06-26T00:02:25;98960.16;;;18.42
77414;BMP280;66486;49.992;19.164;2023-06-26T00:04:51;98968.53;;;18.39
77414;BMP280;66486;49.992;19.164;2023-06-26T00:07:20;98961.44;;;18.18
77414;BMP280;66486;49.992;19.164;2023-06-26T00:09:46;98950.03;;;18.05
77414;BMP280;66486;49.992;19.164;2023-06-26T00:12:12;98961.94;;;18.07
77414;BMP280;66486;49.992;19.164;2023-06-26T00:14:38;98958.69;;;18.18
77414;BMP280;66486;49.992;19.164;2023-06-26T00:17:04;98952.69;;;18.14
77414;BMP280;66486;49.992;19.164;2023-06-26T00:19:30;98950.03;;;18.05
77414;BMP280;66486;49.992;19.164;2023-06-26T00:21:56;98955.47;;;18.05
77414;BMP280;66486;49.992;19.164;2023-06-26T00:24:22;98956.25;;;17.96
77414;BMP280;66486;49.992;19.164;2023-06-26T00:26:48;98954.06;;;17.85
77414;BMP280;66486;49.992;19.164;2023-06-26T00:29:15;98954.31;;;17.87
77414;BMP280;66486;49.992;19.164;2023-06-26T00:31:41;98953.88;;;17.89
77414;BMP280;66486;49.992;19.164;2023-06-26T00:34:07;98962.72;;;17.75
77414;BMP280;66486;49.992;19.164;2023-06-26T00:36:33;98958.34;;;17.68
77414;BMP280;66486;49.992;19.164;2023-06-26T00:38:59;98959.09;;;17.69
77414;BMP280;66486;49.992;19.164;2023-06-26T00:41:25;98958.09;;;17.66
77414;BMP280;66486;49.992;19.164;2023-06-26T00:43:51;98967.84;;;17.73
77414;BMP280;66486;49.992;19.164;2023-06-26T00:46:17;98962.59;;;17.69
77414;BMP280;66486;49.992;19.164;2023-06-26T00:48:44;98956.84;;;17.67
77414;BMP280;66486;49.992;19.164;2023-06-26T00:51:11;98957.03;;;17.64
77414;BMP280;66486;49.992;19.164;2023-06-26T00:53:38;98956.44;;;17.60
77414;BMP280;66486;49.992;19.164;2023-06-26T00:56:05;98949.69;;;17.46
77414;BMP280;66486;49.992;19.164;2023-06-26T00:58:31;98955.44;;;17.39
77414;BMP280;66486;49.992;19.164;2023-06-26T01:00:57;98950.97;;;17.27
77414;BMP280;66486;49.992;19.164;2023-06-26T01:03:24;98954.44;;;17.19
77414;BMP280;66486;49.992;19.164;2023-06-26T01:05:58;98946.75;;;16.99
77414;BMP280;66486;49.992;19.164;2023-06-26T01:08:25;98944.66;;;16.94
77414;BMP280;66486;49.992;19.164;2023-06-26T01:10:52;98950.28;;;16.90
77414;BMP280;66486;49.992;19.164;2023-06-26T01:13:19;98942.41;;;16.83
77414;BMP280;66486;49.992;19.164;2023-06-26T01:15:46;98941.31;;;16.99
77414;BMP280;66486;49.992;19.164;2023-06-26T01:18:12;98953.09;;;17.14
77414;BMP280;66486;49.992;19.164;2023-06-26T01:20:41;98948.41;;;17.15
77414;BMP280;66486;49.992;19.164;2023-06-26T01:23:24;98947.03;;;17.19
77414;BMP280;66486;49.992;19.164;2023-06-26T01:28:39;98947.03;;;17.10
77414;BMP280;66486;49.992;19.164;2023-06-26T01:31:07;98947.81;;;17.11
77414;BMP280;66486;49.992;19.164;2023-06-26T01:33:33;98946.28;;;17.19
77414;BMP280;66486;49.992;19.164;2023-06-26T01:36:00;98940.09;;;17.27
77414;BMP280;66486;49.992;19.164;2023-06-26T01:38:26;98945.19;;;17.34
77414;BMP280;66486;49.992;19.164;2023-06-26T01:40:52;98936.53;;;17.45
77414;BMP280;66486;49.992;19.164;2023-06-26T01:46:11;98934.88;;;17.47
77414;BMP280;66486;49.992;19.164;2023-06-26T01:48:49;98930.34;;;17.44
77414;BMP280;66486;49.992;19.164;2023-06-26T01:51:17;98933.09;;;17.35
77414;BMP280;66486;49.992;19.164;2023-06-26T01:53:47;98936.44;;;17.30
77414;BMP280;66486;49.992;19.164;2023-06-26T01:56:18;98933.56;;;17.25
77414;BMP280;66486;49.992;19.164;2023-06-26T01:58:46;98940.84;;;17.28
77414;BMP280;66486;49.992;19.164;2023-06-26T02:01:19;98931.00;;;17.30
77414;BMP280;66486;49.992;19.164;2023-06-26T02:03:44;98942.47;;;17.25
77414;BMP280;66486;49.992;19.164;2023-06-26T02:06:11;98933.00;;;17.21
77414;BMP280;66486;49.992;19.164;2023-06-26T02:08:36;98933.56;;;17.25
77414;BMP280;66486;49.992;19.164;2023-06-26T02:11:02;98940.56;;;17.17
77414;BMP280;66486;49.992;19.164;2023-06-26T02:13:28;98936.38;;;16.97
77414;BMP280;66486;49.992;19.164;2023-06-26T02:15:55;98935.16;;;16.98
77414;BMP280;66486;49.992;19.164;2023-06-26T02:18:21;98925.94;;;16.96
77414;BMP280;66486;49.992;19.164;2023-06-26T02:20:50;98936.97;;;16.92
77414;BMP280;66486;49.992;19.164;2023-06-26T02:23:16;98927.16;;;16.86
77414;BMP280;66486;49.992;19.164;2023-06-26T02:25:42;98928.53;;;16.81
77414;BMP280;66486;49.992;19.164;2023-06-26T02:28:08;98933.19;;;16.81
77414;BMP280;66486;49.992;19.164;2023-06-26T02:30:34;98925.06;;;16.81
77414;BMP280;66486;49.992;19.164;2023-06-26T02:33:00;98923.25;;;16.87
77414;BMP280;66486;49.992;19.164;2023-06-26T02:35:26;98932.00;;;16.82
77414;BMP280;66486;49.992;19.164;2023-06-26T02:37:51;98930.47;;;16.81
77414;BMP280;66486;49.992;19.164;2023-06-26T02:40:18;98934.00;;;16.72
77414;BMP280;66486;49.992;19.164;2023-06-26T02:42:44;98923.41;;;16.65
77414;BMP280;66486;49.992;19.164;2023-06-26T02:45:10;98938.66;;;16.72
77414;BMP280;66486;49.992;19.164;2023-06-26T02:47:35;98939.56;;;16.69
77414;BMP280;66486;49.992;19.164;2023-06-26T02:50:06;98932.31;;;16.57
77414;BMP280;66486;49.992;19.164;2023-06-26T02:52:32;98933.34;;;16.59
77414;BMP280;66486;49.992;19.164;2023-06-26T02:54:58;98933.97;;;16.54
77414;BMP280;66486;49.992;19.164;2023-06-26T02:57:24;98929.00;;;16.44
77414;BMP280;66486;49.992;19.164;2023-06-26T02:59:50;98935.31;;;16.41
77414;BMP280;66486;49.992;19.164;2023-06-26T03:02:16;98934.31;;;16.47
77414;BMP280;66486;49.992;19.164;2023-06-26T03:04:42;98936.69;;;16.45
77414;BMP280;66486;49.992;19.164;2023-06-26T03:07:08;98938.81;;;16.41
77414;BMP280;66486;49.992;19.164;2023-06-26T03:09:35;98934.41;;;16.53
77414;BMP280;66486;49.992;19.164;2023-06-26T03:12:00;98935.91;;;16.63
77414;BMP280;66486;49.992;19.164;2023-06-26T03:14:27;98941.81;;;16.70
77414;BMP280;66486;49.992;19.164;2023-06-26T03:16:53;98944.69;;;16.58
77414;BMP280;66486;49.992;19.164;2023-06-26T03:19:23;98935.03;;;16.48
77414;BMP280;66486;49.992;19.164;2023-06-26T03:21:49;98933.97;;;16.54
77414;BMP280;66486;49.992;19.164;2023-06-26T03:24:15;98944.56;;;16.61
77414;BMP280;66486;49.992;19.164;2023-06-26T03:26:41;98940.31;;;16.60
77414;BMP280;66486;49.992;19.164;2023-06-26T03:29:07;98939.88;;;16.62
77414;BMP280;66486;49.992;19.164;2023-06-26T03:31:33;98940.66;;;16.62
77414;BMP280;66486;49.992;19.164;2023-06-26T03:33:59;98937.75;;;16.48
77414;BMP280;66486;49.992;19.164;2023-06-26T03:36:25;98939.41;;;16.54
77414;BMP280;66486;49.992;19.164;2023-06-26T03:38:51;98939.13;;;16.52
77414;BMP280;66486;49.992;19.164;2023-06-26T03:41:18;98946.50;;;16.52
77414;BMP280;66486;49.992;19.164;2023-06-26T03:43:44;98949.81;;;16.56
77414;BMP280;66486;49.992;19.164;2023-06-26T03:46:10;98945.31;;;16.62
77414;BMP280;66486;49.992;19.164;2023-06-26T03:48:36;98952.84;;;16.67
77414;BMP280;66486;49.992;19.164;2023-06-26T03:51:03;98950.91;;;16.67
77414;BMP280;66486;49.992;19.164;2023-06-26T03:53:29;98956.78;;;16.93
77414;BMP280;66486;49.992;19.164;2023-06-26T03:55:55;98954.34;;;16.95
77414;BMP280;66486;49.992;19.164;2023-06-26T03:58:21;98955.25;;;16.92
77414;BMP280;66486;49.992;19.164;2023-06-26T04:00:47;98948.19;;;16.76
77414;BMP280;66486;49.992;19.164;2023-06-26T04:03:13;98956.47;;;16.82
77414;BMP280;66486;49.992;19.164;2023-06-26T04:05:39;98949.81;;;17.01
77414;BMP280;66486;49.992;19.164;2023-06-26T04:08:05;98947.03;;;17.19
77414;BMP280;66486;49.992;19.164;2023-06-26T04:10:31;98947.75;;;17.29
77414;BMP280;66486;49.992;19.164;2023-06-26T04:12:57;98950.94;;;17.18
77414;BMP280;66486;49.992;19.164;2023-06-26T04:15:23;98951.63;;;16.95
77414;BMP280;66486;49.992;19.164;2023-06-26T04:17:49;98952.09;;;17.02
77414;BMP280;66486;49.992;19.164;2023-06-26T04:20:15;98940.75;;;16.86
77414;BMP280;66486;49.992;19.164;2023-06-26T04:22:41;98947.97;;;17.07
77414;BMP280;66486;49.992;19.164;2023-06-26T04:25:07;98941.31;;;17.08
77414;BMP280;66486;49.992;19.164;2023-06-26T04:27:33;98942.06;;;17.08
77414;BMP280;66486;49.992;19.164;2023-06-26T04:29:59;98934.13;;;17.38
77414;BMP280;66486;49.992;19.164;2023-06-26T04:32:25;98939.03;;;17.57
77414;BMP280;66486;49.992;19.164;2023-06-26T04:34:51;98935.06;;;17.67
77414;BMP280;66486;49.992;19.164;2023-06-26T04:37:17;98932.22;;;17.62
77414;BMP280;66486;49.992;19.164;2023-06-26T04:39:43;98938.09;;;17.69
77414;BMP280;66486;49.992;19.164;2023-06-26T04:42:09;98942.94;;;17.65
77414;BMP280;66486;49.992;19.164;2023-06-26T04:44:37;98938.84;;;17.70
77414;BMP280;66486;49.992;19.164;2023-06-26T04:47:04;98941.06;;;17.80
77414;BMP280;66486;49.992;19.164;2023-06-26T04:49:30;98941.13;;;17.95
77414;BMP280;66486;49.992;19.164;2023-06-26T04:51:56;98943.38;;;18.20
77414;BMP280;66486;49.992;19.164;2023-06-26T04:54:22;98939.06;;;18.52
77414;BMP280;66486;49.992;19.164;2023-06-26T04:56:49;98949.53;;;18.68
77414;BMP280;66486;49.992;19.164;2023-06-26T04:59:14;98955.09;;;18.88
77414;BMP280;66486;49.992;19.164;2023-06-26T05:01:41;98958.47;;;18.68
77414;BMP280;66486;49.992;19.164;2023-06-26T05:04:07;98950.75;;;18.96
77414;BMP280;66486;49.992;19.164;2023-06-26T05:06:33;98957.53;;;19.15
77414;BMP280;66486;49.992;19.164;2023-06-26T05:08:59;98948.03;;;18.96
77414;BMP280;66486;49.992;19.164;2023-06-26T05:11:26;98944.78;;;18.92
77414;BMP280;66486;49.992;19.164;2023-06-26T05:13:51;98958.59;;;19.03
77414;BMP280;66486;49.992;19.164;2023-06-26T05:16:18;98955.09;;;18.88
77414;BMP280;66486;49.992;19.164;2023-06-26T05:18:43;98949.16;;;19.04
77414;BMP280;66486;49.992;19.164;2023-06-26T05:21:10;98948.69;;;19.20
77414;BMP280;66486;49.992;19.164;2023-06-26T05:23:36;98949.06;;;19.28
77414;BMP280;66486;49.992;19.164;2023-06-26T05:26:02;98948.78;;;19.26
77414;BMP280;66486;49.992;19.164;2023-06-26T05:28:29;98949.50;;;19.41
77414;BMP280;66486;49.992;19.164;2023-06-26T05:30:59;98958.91;;;19.54
77414;BMP280;66486;49.992;19.164;2023-06-26T05:33:26;98949.59;;;19.46
77414;BMP280;66486;49.992;19.164;2023-06-26T05:35:53;98949.44;;;19.70
77414;BMP280;66486;49.992;19.164;2023-06-26T05:38:20;98955.00;;;19.96
77414;BMP280;66486;49.992;19.164;2023-06-26T05:40:47;98946.72;;;20.10
77414;BMP280;66486;49.992;19.164;2023-06-26T05:43:13;98945.97;;;20.30
77414;BMP280;66486;49.992;19.164;2023-06-26T05:45:40;98939.75;;;20.29
77414;BMP280;66486;49.992;19.164;2023-06-26T05:48:06;98944.97;;;20.53
77414;BMP280;66486;49.992;19.164;2023-06-26T05:50:33;98948.78;;;20.61
77414;BMP280;66486;49.992;19.164;2023-06-26T05:52:59;98937.28;;;20.83
77414;BMP280;66486;49.992;19.164;2023-06-26T05:55:29;98943.03;;;20.85
77414;BMP280;66486;49.992;19.164;2023-06-26T05:57:57;98947.06;;;21.20
77414;BMP280;66486;49.992;19.164;2023-06-26T06:00:26;98946.75;;;21.44
77414;BMP280;66486;49.992;19.164;2023-06-26T06:02:52;98927.19;;;21.68
77414;BMP280;66486;49.992;19.164;2023-06-26T06:05:20;98939.28;;;21.98
77414;BMP280;66486;49.992;19.164;2023-06-26T06:07:48;98934.38;;;22.24
77414;BMP280;66486;49.992;19.164;2023-06-26T06:10:14;98942.91;;;22.48
77414;BMP280;66486;49.992;19.164;2023-06-26T06:12:40;98943.13;;;22.39
77414;BMP280;66486;49.992;19.164;2023-06-26T06:15:06;98934.38;;;22.24
77414;BMP280;66486;49.992;19.164;2023-06-26T06:17:32;98938.34;;;22.23
77414;BMP280;66486;49.992;19.164;2023-06-26T06:19:58;98944.59;;;22.29
77414;BMP280;66486;49.992;19.164;2023-06-26T06:22:24;98936.66;;;22.48
77414;BMP280;66486;49.992;19.164;2023-06-26T06:24:50;98937.91;;;22.47
77414;BMP280;66486;49.992;19.164;2023-06-26T06:27:16;98939.41;;;22.59
77414;BMP280;66486;49.992;19.164;2023-06-26T06:29:42;98942.91;;;22.70
77414;BMP280;66486;49.992;19.164;2023-06-26T06:32:09;98933.97;;;22.97
77414;BMP280;66486;49.992;19.164;2023-06-26T06:34:35;98939.44;;;23.08
77414;BMP280;66486;49.992;19.164;2023-06-26T06:39:15;98944.41;;;23.15
77414;BMP280;66486;49.992;19.164;2023-06-26T06:41:41;98938.03;;;23.65
77414;BMP280;66486;49.992;19.164;2023-06-26T06:44:07;98943.88;;;23.33
77414;BMP280;66486;49.992;19.164;2023-06-26T06:46:33;98930.50;;;23.76
77414;BMP280;66486;49.992;19.164;2023-06-26T06:49:00;98939.13;;;23.97
77414;BMP280;66486;49.992;19.164;2023-06-26T06:51:26;98940.69;;;24.33
77414;BMP280;66486;49.992;19.164;2023-06-26T06:53:52;98940.38;;;24.42
77414;BMP280;66486;49.992;19.164;2023-06-26T06:56:18;98942.19;;;24.93
77414;BMP280;66486;49.992;19.164;2023-06-26T06:58:44;98947.22;;;25.43
77414;BMP280;66486;49.992;19.164;2023-06-26T07:01:12;98938.00;;;25.59
77414;BMP280;66486;49.992;19.164;2023-06-26T07:03:39;98950.47;;;25.84
77414;BMP280;66486;49.992;19.164;2023-06-26T07:06:06;98941.00;;;25.98
77414;BMP280;66486;49.992;19.164;2023-06-26T07:08:32;98947.53;;;25.77
77414;BMP280;66486;49.992;19.164;2023-06-26T07:10:58;98947.91;;;26.05
77414;BMP280;66486;49.992;19.164;2023-06-26T07:13:24;98943.09;;;26.11
77414;BMP280;66486;49.992;19.164;2023-06-26T07:15:50;98940.41;;;26.82
77414;BMP280;66486;49.992;19.164;2023-06-26T07:18:16;98932.88;;;26.82
77414;BMP280;66486;49.992;19.164;2023-06-26T07:20:43;98926.94;;;27.17
77414;BMP280;66486;49.992;19.164;2023-06-26T07:23:08;98924.28;;;27.38
77414;BMP280;66486;49.992;19.164;2023-06-26T07:25:35;98929.22;;;27.65
77414;BMP280;66486;49.992;19.164;2023-06-26T07:28:01;98940.66;;;27.23
77414;BMP280;66486;49.992;19.164;2023-06-26T07:30:27;98934.94;;;26.95
77414;BMP280;66486;49.992;19.164;2023-06-26T07:32:54;98930.88;;;27.09
77414;BMP280;66486;49.992;19.164;2023-06-26T07:35:20;98935.53;;;27.40
77414;BMP280;66486;49.992;19.164;2023-06-26T07:37:46;98940.28;;;27.78
77414;BMP280;66486;49.992;19.164;2023-06-26T07:40:12;98937.19;;;27.82
77414;BMP280;66486;49.992;19.164;2023-06-26T07:42:38;98937.69;;;27.93
77414;BMP280;66486;49.992;19.164;2023-06-26T07:45:06;98936.44;;;28.02
77414;BMP280;66486;49.992;19.164;2023-06-26T07:47:39;98926.78;;;28.16
77414;BMP280;66486;49.992;19.164;2023-06-26T07:50:06;98930.72;;;28.21
77414;BMP280;66486;49.992;19.164;2023-06-26T07:52:32;98934.84;;;28.27
77414;BMP280;66486;49.992;19.164;2023-06-26T07:54:58;98932.94;;;28.63
77414;BMP280;66486;49.992;19.164;2023-06-26T07:57:24;98940.00;;;28.44
77414;BMP280;66486;49.992;19.164;2023-06-26T07:59:50;98935.81;;;28.30
77414;BMP280;66486;49.992;19.164;2023-06-26T08:02:16;98938.25;;;28.33
77414;BMP280;66486;49.992;19.164;2023-06-26T08:04:43;98932.91;;;28.84
77414;BMP280;66486;49.992;19.164;2023-06-26T08:07:09;98941.38;;;29.06
77414;BMP280;66486;49.992;19.164;2023-06-26T08:09:36;98941.09;;;29.25
77414;BMP280;66486;49.992;19.164;2023-06-26T08:12:02;98937.16;;;29.13
77414;BMP280;66486;49.992;19.164;2023-06-26T08:14:28;98934.59;;;29.22
77414;BMP280;66486;49.992;19.164;2023-06-26T08:16:54;98932.59;;;29.81
77414;BMP280;66486;49.992;19.164;2023-06-26T08:19:21;98929.66;;;29.79
77414;BMP280;66486;49.992;19.164;2023-06-26T08:21:47;98935.16;;;29.64
77414;BMP280;66486;49.992;19.164;2023-06-26T08:24:14;98927.09;;;29.02
77414;BMP280;66486;49.992;19.164;2023-06-26T08:26:42;98928.78;;;28.29
77414;BMP280;66486;49.992;19.164;2023-06-26T08:29:08;98926.41;;;28.53
77414;BMP280;66486;49.992;19.164;2023-06-26T08:31:34;98932.44;;;29.36
77414;BMP280;66486;49.992;19.164;2023-06-26T08:34:02;98930.28;;;29.06
77414;BMP280;66486;49.992;19.164;2023-06-26T08:36:28;98931.47;;;29.26
77414;BMP280;66486;49.992;19.164;2023-06-26T08:38:54;98926.25;;;29.22
77414;BMP280;66486;49.992;19.164;2023-06-26T08:41:20;98925.41;;;29.35
77414;BMP280;66486;49.992;19.164;2023-06-26T08:43:47;98919.94;;;29.50
77414;BMP280;66486;49.992;19.164;2023-06-26T08:46:14;98928.00;;;29.40
77414;BMP280;66486;49.992;19.164;2023-06-26T08:48:42;98930.50;;;29.67
77414;BMP280;66486;49.992;19.164;2023-06-26T08:51:12;98926.41;;;29.60
77414;BMP280;66486;49.992;19.164;2023-06-26T08:56:15;98931.25;;;29.67
77414;BMP280;66486;49.992;19.164;2023-06-26T08:58:44;98923.78;;;29.47
77414;BMP280;66486;49.992;19.164;2023-06-26T09:01:10;98917.78;;;29.79
77414;BMP280;66486;49.992;19.164;2023-06-26T09:03:37;98912.63;;;30.13
77414;BMP280;66486;49.992;19.164;2023-06-26T09:06:03;98920.59;;;30.24
77414;BMP280;66486;49.992;19.164;2023-06-26T09:08:29;98915.41;;;30.20
77414;BMP280;66486;49.992;19.164;2023-06-26T09:10:55;98913.47;;;30.83
77414;BMP280;66486;49.992;19.164;2023-06-26T09:13:21;98917.09;;;30.23
77414;BMP280;66486;49.992;19.164;2023-06-26T09:15:47;98911.03;;;30.94
77414;BMP280;66486;49.992;19.164;2023-06-26T09:18:17;98913.94;;;31.12
77414;BMP280;66486;49.992;19.164;2023-06-26T09:20:43;98907.75;;;30.81
77414;BMP280;66486;49.992;19.164;2023-06-26T09:23:10;98910.81;;;30.08
77414;BMP280;66486;49.992;19.164;2023-06-26T09:25:38;98913.34;;;29.25
77414;BMP280;66486;49.992;19.164;2023-06-26T09:28:05;98905.38;;;29.21
77414;BMP280;66486;49.992;19.164;2023-06-26T09:30:34;98905.16;;;29.12
77414;BMP280;66486;49.992;19.164;2023-06-26T09:33:17;98905.53;;;29.59
77414;BMP280;66486;49.992;19.164;2023-06-26T09:35:44;98910.69;;;29.63
77414;BMP280;66486;49.992;19.164;2023-06-26T09:38:10;98905.03;;;29.83
77414;BMP280;66486;49.992;19.164;2023-06-26T09:40:36;98893.91;;;29.17
77414;BMP280;66486;49.992;19.164;2023-06-26T09:43:05;98904.47;;;29.19
77414;BMP280;66486;49.992;19.164;2023-06-26T09:45:32;98905.19;;;28.84
77414;BMP280;66486;49.992;19.164;2023-06-26T09:48:00;98910.91;;;28.30
77414;BMP280;66486;49.992;19.164;2023-06-26T09:50:28;98907.69;;;28.46
77414;BMP280;66486;49.992;19.164;2023-06-26T09:52:55;98903.09;;;28.69
77414;BMP280;66486;49.992;19.164;2023-06-26T09:55:21;98904.13;;;29.30
77414;BMP280;66486;49.992;19.164;2023-06-26T09:57:50;98901.88;;;29.79
77414;BMP280;66486;49.992;19.164;2023-06-26T10:00:16;98903.50;;;29.67
77414;BMP280;66486;49.992;19.164;2023-06-26T10:02:43;98891.84;;;29.61
77414;BMP280;66486;49.992;19.164;2023-06-26T10:05:10;98893.53;;;29.64
77414;BMP280;66486;49.992;19.164;2023-06-26T10:07:37;98883.53;;;29.76
77414;BMP280;66486;49.992;19.164;2023-06-26T10:10:05;98896.16;;;30.00
77414;BMP280;66486;49.992;19.164;2023-06-26T10:12:32;98881.56;;;30.22
77414;BMP280;66486;49.992;19.164;2023-06-26T10:15:02;98877.03;;;29.66
77414;BMP280;66486;49.992;19.164;2023-06-26T10:17:33;98886.31;;;29.61
77414;BMP280;66486;49.992;19.164;2023-06-26T10:20:02;98877.03;;;29.66
77414;BMP280;66486;49.992;19.164;2023-06-26T10:22:33;98877.47;;;29.93
77414;BMP280;66486;49.992;19.164;2023-06-26T10:25:00;98872.66;;;30.23
77414;BMP280;66486;49.992;19.164;2023-06-26T10:27:33;98864.50;;;30.25
77414;BMP280;66486;49.992;19.164;2023-06-26T10:30:03;98860.06;;;30.07
77414;BMP280;66486;49.992;19.164;2023-06-26T10:32:31;98860.56;;;30.58
77414;BMP280;66486;49.992;19.164;2023-06-26T10:34:58;98868.56;;;30.32
77414;BMP280;66486;49.992;19.164;2023-06-26T10:37:44;98862.06;;;29.11
77414;BMP280;66486;49.992;19.164;2023-06-26T10:40:11;98859.63;;;29.66
77414;BMP280;66486;49.992;19.164;2023-06-26T10:42:39;98854.88;;;30.34
77414;BMP280;66486;49.992;19.164;2023-06-26T10:45:18;98857.25;;;30.45
77414;BMP280;66486;49.992;19.164;2023-06-26T10:47:52;98851.97;;;30.79
77414;BMP280;66486;49.992;19.164;2023-06-26T10:50:22;98848.19;;;30.52
77414;BMP280;66486;49.992;19.164;2023-06-26T10:55:36;98861.56;;;29.93
77414;BMP280;66486;49.992;19.164;2023-06-26T10:58:03;98864.63;;;29.44
77414;BMP280;66486;49.992;19.164;2023-06-26T11:00:29;98857.06;;;28.66
77414;BMP280;66486;49.992;19.164;2023-06-26T11:02:55;98861.56;;;28.49
77414;BMP280;66486;49.992;19.164;2023-06-26T11:05:27;98847.56;;;28.26
77414;BMP280;66486;49.992;19.164;2023-06-26T11:08:04;98856.56;;;28.27
77414;BMP280;66486;49.992;19.164;2023-06-26T11:10:48;98842.88;;;28.49
77414;BMP280;66486;49.992;19.164;2023-06-26T11:13:16;98853.69;;;29.39
77414;BMP280;66486;49.992;19.164;2023-06-26T11:15:43;98844.69;;;29.54
77414;BMP280;66486;49.992;19.164;2023-06-26T11:18:13;98846.88;;;29.63
77414;BMP280;66486;49.992;19.164;2023-06-26T11:20:40;98840.81;;;29.64
77414;BMP280;66486;49.992;19.164;2023-06-26T11:23:09;98845.59;;;29.56
77414;BMP280;66486;49.992;19.164;2023-06-26T11:25:37;98844.91;;;29.93
77414;BMP280;66486;49.992;19.164;2023-06-26T11:28:04;98842.09;;;30.08
77414;BMP280;66486;49.992;19.164;2023-06-26T11:30:31;98837.66;;;30.20
77414;BMP280;66486;49.992;19.164;2023-06-26T11:33:08;98841.88;;;30.44
77414;BMP280;66486;49.992;19.164;2023-06-26T11:35:35;98837.09;;;30.29
77414;BMP280;66486;49.992;19.164;2023-06-26T11:38:03;98841.53;;;30.32
77414;BMP280;66486;49.992;19.164;2023-06-26T11:40:34;98840.16;;;30.63
77414;BMP280;66486;49.992;19.164;2023-06-26T11:43:01;98835.75;;;30.45
77414;BMP280;66486;49.992;19.164;2023-06-26T11:45:30;98834.41;;;28.83
77414;BMP280;66486;49.992;19.164;2023-06-26T11:47:56;98831.00;;;28.34
77414;BMP280;66486;49.992;19.164;2023-06-26T11:50:23;98833.94;;;28.36
77414;BMP280;66486;49.992;19.164;2023-06-26T11:52:53;98833.41;;;27.88
77414;BMP280;66486;49.992;19.164;2023-06-26T11:55:20;98830.59;;;28.09
77414;BMP280;66486;49.992;19.164;2023-06-26T11:57:50;98825.97;;;28.96
77414;BMP280;66486;49.992;19.164;2023-06-26T12:00:18;98829.31;;;29.53
77414;BMP280;66486;49.992;19.164;2023-06-26T12:02:45;98821.19;;;29.77
77414;BMP280;66486;49.992;19.164;2023-06-26T12:05:14;98815.66;;;30.07
77414;BMP280;66486;49.992;19.164;2023-06-26T12:07:42;98813.94;;;29.52
77414;BMP280;66486;49.992;19.164;2023-06-26T12:10:10;98807.59;;;28.78
77414;BMP280;66486;49.992;19.164;2023-06-26T12:12:38;98808.22;;;29.42
77414;BMP280;66486;49.992;19.164;2023-06-26T12:15:06;98812.34;;;29.94
77414;BMP280;66486;49.992;19.164;2023-06-26T12:17:33;98801.59;;;29.98
77414;BMP280;66486;49.992;19.164;2023-06-26T12:19:58;98800.41;;;29.33
77414;BMP280;66486;49.992;19.164;2023-06-26T12:22:33;98791.88;;;29.23
77414;BMP280;66486;49.992;19.164;2023-06-26T12:25:00;98800.28;;;29.84
77414;BMP280;66486;49.992;19.164;2023-06-26T12:27:27;98793.25;;;29.83
77414;BMP280;66486;49.992;19.164;2023-06-26T12:29:53;98798.75;;;30.35
77414;BMP280;66486;49.992;19.164;2023-06-26T12:32:24;98806.00;;;30.23
77414;BMP280;66486;49.992;19.164;2023-06-26T12:34:52;98805.84;;;29.76
77414;BMP280;66486;49.992;19.164;2023-06-26T12:37:19;98793.97;;;30.06
77414;BMP280;66486;49.992;19.164;2023-06-26T12:39:55;98790.84;;;30.02
77414;BMP280;66486;49.992;19.164;2023-06-26T12:42:27;98788.81;;;29.72
77414;BMP280;66486;49.992;19.164;2023-06-26T12:44:53;98795.47;;;29.99
77414;BMP280;66486;49.992;19.164;2023-06-26T12:47:25;98796.38;;;30.24
77414;BMP280;66486;49.992;19.164;2023-06-26T12:49:52;98793.94;;;30.83
77414;BMP280;66486;49.992;19.164;2023-06-26T12:52:20;98789.69;;;30.82
77414;BMP280;66486;49.992;19.164;2023-06-26T12:54:49;98788.72;;;30.40
77414;BMP280;66486;49.992;19.164;2023-06-26T12:57:17;98778.09;;;30.61
77414;BMP280;66486;49.992;19.164;2023-06-26T12:59:43;98781.66;;;30.54
77414;BMP280;66486;49.992;19.164;2023-06-26T13:02:10;98782.69;;;30.73
77414;BMP280;66486;49.992;19.164;2023-06-26T13:04:39;98775.22;;;30.36
77414;BMP280;66486;49.992;19.164;2023-06-26T13:07:10;98775.22;;;30.44
77414;BMP280;66486;49.992;19.164;2023-06-26T13:09:36;98767.63;;;30.84
77414;BMP280;66486;49.992;19.164;2023-06-26T13:12:05;98769.34;;;30.17
77414;BMP280;66486;49.992;19.164;2023-06-26T13:14:31;98769.16;;;30.30
77414;BMP280;66486;49.992;19.164;2023-06-26T13:16:59;98761.88;;;30.82
77414;BMP280;66486;49.992;19.164;2023-06-26T13:19:26;98765.94;;;30.88
77414;BMP280;66486;49.992;19.164;2023-06-26T13:21:53;98765.84;;;30.64
77414;BMP280;66486;49.992;19.164;2023-06-26T13:24:19;98759.63;;;30.48
77414;BMP280;66486;49.992;19.164;2023-06-26T13:26:45;98758.31;;;30.89
77414;BMP280;66486;49.992;19.164;2023-06-26T13:29:11;98755.63;;;31.06
77414;BMP280;66486;49.992;19.164;2023-06-26T13:31:37;98754.66;;;31.11
77414;BMP280;66486;49.992;19.164;2023-06-26T13:34:04;98759.78;;;30.50
77414;BMP280;66486;49.992;19.164;2023-06-26T13:36:31;98749.81;;;30.47
77414;BMP280;66486;49.992;19.164;2023-06-26T13:38:59;98746.97;;;30.94
77414;BMP280;66486;49.992;19.164;2023-06-26T13:41:25;98751.78;;;31.02
77414;BMP280;66486;49.992;19.164;2023-06-26T13:43:52;98740.94;;;31.13
77414;BMP280;66486;49.992;19.164;2023-06-26T13:46:18;98734.34;;;31.26
77414;BMP280;66486;49.992;19.164;2023-06-26T13:48:45;98732.84;;;31.00
77414;BMP280;66486;49.992;19.164;2023-06-26T13:51:11;98739.84;;;31.09
77414;BMP280;66486;49.992;19.164;2023-06-26T13:53:37;98734.97;;;30.92
77414;BMP280;66486;49.992;19.164;2023-06-26T13:56:03;98740.84;;;31.28
77414;BMP280;66486;49.992;19.164;2023-06-26T13:58:30;98737.06;;;31.33
77414;BMP280;66486;49.992;19.164;2023-06-26T14:00:59;98732.13;;;31.24
77414;BMP280;66486;49.992;19.164;2023-06-26T14:03:26;98727.88;;;31.48
77414;BMP280;66486;49.992;19.164;2023-06-26T14:05:54;98732.81;;;31.57
77414;BMP280;66486;49.992;19.164;2023-06-26T14:08:20;98722.34;;;31.40
77414;BMP280;66486;49.992;19.164;2023-06-26T14:10:46;98718.78;;;31.47